Albertson, New York
Current Conditions -  °F | °C
As of 7:51 AM on Wednesday 26 Nov 2014 (Local Time) from KJFK Reporting Station
Light Rain Light Rain  
Wind Chill: 36°   Ceiling: 3800
Heat Index: 42°   Visibility: 6mi
Dew Point: 35°   Wind: 10mph
Humidity: 76%   Direction: 30°NNE
Pressure: 30.17"   Gusts: NA
Location:  40.77°N, 73.65°W
Report Text: KJFK 261251Z 03009KT 6SM -RA BKN038 OVC055 06/02 A3017 RMK AO2 SLP215 P0003 T00560017 $
Loading
Personal Weather Stations






























Interactive Weather Map New forecast layout! Learn more

10-Day Weather Forecast

Advertisements
Track Severe Weather on mobile